sensor_id;sensor_type;location;lat;lon;timestamp;temperature;humidity
18777;DHT22;9517;51.174;4.160;2022-10-16T00:00:49;14.20;99.90
18777;DHT22;9517;51.174;4.160;2022-10-16T00:03:15;14.20;99.90
18777;DHT22;9517;51.174;4.160;2022-10-16T00:05:44;14.10;99.90
18777;DHT22;9517;51.174;4.160;2022-10-16T00:08:12;14.10;99.90
18777;DHT22;9517;51.174;4.160;2022-10-16T00:10:39;14.00;99.90
18777;DHT22;9517;51.174;4.160;2022-10-16T00:13:07;14.00;99.90
18777;DHT22;9517;51.174;4.160;2022-10-16T00:15:35;14.00;99.90
18777;DHT22;9517;51.174;4.160;2022-10-16T00:18:03;14.00;99.90
18777;DHT22;9517;51.174;4.160;2022-10-16T00:20:33;14.10;99.90
18777;DHT22;9517;51.174;4.160;2022-10-16T00:23:03;14.20;99.90
18777;DHT22;9517;51.174;4.160;2022-10-16T00:25:31;14.10;99.90
18777;DHT22;9517;51.174;4.160;2022-10-16T00:27:59;14.00;99.90
18777;DHT22;9517;51.174;4.160;2022-10-16T00:30:26;14.00;99.90
18777;DHT22;9517;51.174;4.160;2022-10-16T00:32:54;13.80;99.90
18777;DHT22;9517;51.174;4.160;2022-10-16T00:35:21;13.70;99.90
18777;DHT22;9517;51.174;4.160;2022-10-16T00:37:48;13.70;99.90
18777;DHT22;9517;51.174;4.160;2022-10-16T00:40:17;13.60;99.90
18777;DHT22;9517;51.174;4.160;2022-10-16T00:42:44;13.60;99.90
18777;DHT22;9517;51.174;4.160;2022-10-16T00:45:11;13.60;99.90
18777;DHT22;9517;51.174;4.160;2022-10-16T00:47:42;13.60;99.90
18777;DHT22;9517;51.174;4.160;2022-10-16T00:50:17;13.70;99.90
18777;DHT22;9517;51.174;4.160;2022-10-16T00:52:47;13.60;99.90
18777;DHT22;9517;51.174;4.160;2022-10-16T00:55:16;13.60;99.90
18777;DHT22;9517;51.174;4.160;2022-10-16T00:57:44;13.60;99.90
18777;DHT22;9517;51.174;4.160;2022-10-16T01:00:18;13.50;99.90
18777;DHT22;9517;51.174;4.160;2022-10-16T01:02:52;13.60;99.90
18777;DHT22;9517;51.174;4.160;2022-10-16T01:05:20;13.50;99.90
18777;DHT22;9517;51.174;4.160;2022-10-16T01:07:56;13.40;99.90
18777;DHT22;9517;51.174;4.160;2022-10-16T01:10:31;13.50;99.90
18777;DHT22;9517;51.174;4.160;2022-10-16T01:13:04;13.40;99.90
18777;DHT22;9517;51.174;4.160;2022-10-16T01:15:36;13.40;99.90
18777;DHT22;9517;51.174;4.160;2022-10-16T01:18:08;13.40;99.90
18777;DHT22;9517;51.174;4.160;2022-10-16T01:20:44;13.50;99.90
18777;DHT22;9517;51.174;4.160;2022-10-16T01:23:27;13.50;99.90
18777;DHT22;9517;51.174;4.160;2022-10-16T01:28:47;13.50;99.90
18777;DHT22;9517;51.174;4.160;2022-10-16T01:31:19;13.50;99.90
18777;DHT22;9517;51.174;4.160;2022-10-16T01:33:52;13.40;99.90
18777;DHT22;9517;51.174;4.160;2022-10-16T01:36:23;13.30;99.90
18777;DHT22;9517;51.174;4.160;2022-10-16T01:38:54;13.30;99.90
18777;DHT22;9517;51.174;4.160;2022-10-16T01:41:30;13.30;99.90
18777;DHT22;9517;51.174;4.160;2022-10-16T01:44:02;13.30;99.90
18777;DHT22;9517;51.174;4.160;2022-10-16T01:46:31;13.30;99.90
18777;DHT22;9517;51.174;4.160;2022-10-16T01:49:00;13.20;99.90
18777;DHT22;9517;51.174;4.160;2022-10-16T01:51:29;13.20;99.90
18777;DHT22;9517;51.174;4.160;2022-10-16T01:53:59;13.10;99.90
18777;DHT22;9517;51.174;4.160;2022-10-16T01:56:28;13.10;99.90
18777;DHT22;9517;51.174;4.160;2022-10-16T01:59:01;13.00;99.90
18777;DHT22;9517;51.174;4.160;2022-10-16T02:01:33;13.00;99.90
18777;DHT22;9517;51.174;4.160;2022-10-16T02:04:05;13.10;99.90
18777;DHT22;9517;51.174;4.160;2022-10-16T02:06:34;13.20;99.90
18777;DHT22;9517;51.174;4.160;2022-10-16T02:09:01;13.10;99.90
18777;DHT22;9517;51.174;4.160;2022-10-16T02:11:28;13.20;99.90
18777;DHT22;9517;51.174;4.160;2022-10-16T02:14:00;13.20;99.90
18777;DHT22;9517;51.174;4.160;2022-10-16T02:16:35;13.20;99.90
18777;DHT22;9517;51.174;4.160;2022-10-16T02:19:02;13.10;99.90
18777;DHT22;9517;51.174;4.160;2022-10-16T02:21:35;13.10;99.90
18777;DHT22;9517;51.174;4.160;2022-10-16T02:24:09;13.00;99.90
18777;DHT22;9517;51.174;4.160;2022-10-16T02:26:41;13.00;99.90
18777;DHT22;9517;51.174;4.160;2022-10-16T02:29:13;13.20;99.90
18777;DHT22;9517;51.174;4.160;2022-10-16T02:31:45;13.10;99.90
18777;DHT22;9517;51.174;4.160;2022-10-16T02:34:14;13.10;99.90
18777;DHT22;9517;51.174;4.160;2022-10-16T02:36:44;13.10;99.90
18777;DHT22;9517;51.174;4.160;2022-10-16T02:39:12;13.10;99.90
18777;DHT22;9517;51.174;4.160;2022-10-16T02:41:40;13.10;99.90
18777;DHT22;9517;51.174;4.160;2022-10-16T02:44:07;13.10;99.90
18777;DHT22;9517;51.174;4.160;2022-10-16T02:46:34;13.10;99.90
18777;DHT22;9517;51.174;4.160;2022-10-16T02:49:02;13.10;99.90
18777;DHT22;9517;51.174;4.160;2022-10-16T02:51:29;13.10;99.90
18777;DHT22;9517;51.174;4.160;2022-10-16T02:53:56;13.20;99.90
18777;DHT22;9517;51.174;4.160;2022-10-16T02:56:23;13.10;99.90
18777;DHT22;9517;51.174;4.160;2022-10-16T02:58:50;13.10;99.90
18777;DHT22;9517;51.174;4.160;2022-10-16T03:01:17;13.10;99.90
18777;DHT22;9517;51.174;4.160;2022-10-16T03:03:44;13.20;99.90
18777;DHT22;9517;51.174;4.160;2022-10-16T03:06:13;13.10;99.90
18777;DHT22;9517;51.174;4.160;2022-10-16T03:08:39;13.00;99.90
18777;DHT22;9517;51.174;4.160;2022-10-16T03:11:07;13.00;99.90
18777;DHT22;9517;51.174;4.160;2022-10-16T03:13:34;13.10;99.90
18777;DHT22;9517;51.174;4.160;2022-10-16T03:16:01;13.00;99.90
18777;DHT22;9517;51.174;4.160;2022-10-16T03:18:28;13.00;99.90
18777;DHT22;9517;51.174;4.160;2022-10-16T03:20:55;13.00;99.90
18777;DHT22;9517;51.174;4.160;2022-10-16T03:23:23;12.90;99.90
18777;DHT22;9517;51.174;4.160;2022-10-16T03:25:50;13.00;99.90
18777;DHT22;9517;51.174;4.160;2022-10-16T03:28:17;13.10;99.90
18777;DHT22;9517;51.174;4.160;2022-10-16T03:30:44;13.10;99.90
18777;DHT22;9517;51.174;4.160;2022-10-16T03:33:11;13.10;99.90
18777;DHT22;9517;51.174;4.160;2022-10-16T03:35:38;13.10;99.90
18777;DHT22;9517;51.174;4.160;2022-10-16T03:38:05;13.10;99.90
18777;DHT22;9517;51.174;4.160;2022-10-16T03:40:34;13.20;99.90
18777;DHT22;9517;51.174;4.160;2022-10-16T03:43:01;13.20;99.90
18777;DHT22;9517;51.174;4.160;2022-10-16T03:45:28;13.20;99.90
18777;DHT22;9517;51.174;4.160;2022-10-16T03:47:55;13.30;99.90
18777;DHT22;9517;51.174;4.160;2022-10-16T03:50:22;13.20;99.90
18777;DHT22;9517;51.174;4.160;2022-10-16T03:52:49;13.10;99.90
18777;DHT22;9517;51.174;4.160;2022-10-16T03:55:16;13.10;99.90
18777;DHT22;9517;51.174;4.160;2022-10-16T03:57:44;13.10;99.90
18777;DHT22;9517;51.174;4.160;2022-10-16T04:00:12;13.10;99.90
18777;DHT22;9517;51.174;4.160;2022-10-16T04:02:39;13.10;99.90
18777;DHT22;9517;51.174;4.160;2022-10-16T04:05:07;13.10;99.90
18777;DHT22;9517;51.174;4.160;2022-10-16T04:07:34;13.00;99.90
18777;DHT22;9517;51.174;4.160;2022-10-16T04:10:01;13.00;99.90
18777;DHT22;9517;51.174;4.160;2022-10-16T04:12:28;13.00;99.90
18777;DHT22;9517;51.174;4.160;2022-10-16T04:14:56;13.00;99.90
18777;DHT22;9517;51.174;4.160;2022-10-16T04:17:23;13.00;99.90
18777;DHT22;9517;51.174;4.160;2022-10-16T04:19:50;13.00;99.90
18777;DHT22;9517;51.174;4.160;2022-10-16T04:22:17;13.00;99.90
18777;DHT22;9517;51.174;4.160;2022-10-16T04:24:44;12.90;99.90
18777;DHT22;9517;51.174;4.160;2022-10-16T04:27:11;12.90;99.90
18777;DHT22;9517;51.174;4.160;2022-10-16T04:29:38;13.00;99.90
18777;DHT22;9517;51.174;4.160;2022-10-16T04:32:07;12.90;99.90
18777;DHT22;9517;51.174;4.160;2022-10-16T04:34:35;12.90;99.90
18777;DHT22;9517;51.174;4.160;2022-10-16T04:37:03;12.90;99.90
18777;DHT22;9517;51.174;4.160;2022-10-16T04:39:30;12.80;99.90
18777;DHT22;9517;51.174;4.160;2022-10-16T04:41:57;12.80;99.90
18777;DHT22;9517;51.174;4.160;2022-10-16T04:44:24;12.70;99.90
18777;DHT22;9517;51.174;4.160;2022-10-16T04:46:51;12.80;99.90
18777;DHT22;9517;51.174;4.160;2022-10-16T04:49:20;12.80;99.90
18777;DHT22;9517;51.174;4.160;2022-10-16T04:51:47;12.90;99.90
18777;DHT22;9517;51.174;4.160;2022-10-16T04:54:14;12.80;99.90
18777;DHT22;9517;51.174;4.160;2022-10-16T04:56:40;12.80;99.90
18777;DHT22;9517;51.174;4.160;2022-10-16T04:59:13;12.90;99.90
18777;DHT22;9517;51.174;4.160;2022-10-16T05:01:40;12.80;99.90
18777;DHT22;9517;51.174;4.160;2022-10-16T05:04:07;12.80;99.90
18777;DHT22;9517;51.174;4.160;2022-10-16T05:06:35;12.80;99.90
18777;DHT22;9517;51.174;4.160;2022-10-16T05:09:04;12.80;99.90
18777;DHT22;9517;51.174;4.160;2022-10-16T05:11:31;12.90;99.90
18777;DHT22;9517;51.174;4.160;2022-10-16T05:13:58;12.90;99.90
18777;DHT22;9517;51.174;4.160;2022-10-16T05:16:25;12.80;99.90
18777;DHT22;9517;51.174;4.160;2022-10-16T05:18:53;12.70;99.90
18777;DHT22;9517;51.174;4.160;2022-10-16T05:21:20;12.70;99.90
18777;DHT22;9517;51.174;4.160;2022-10-16T05:23:48;12.70;99.90
18777;DHT22;9517;51.174;4.160;2022-10-16T05:26:15;12.70;99.90
18777;DHT22;9517;51.174;4.160;2022-10-16T05:28:42;12.70;99.90
18777;DHT22;9517;51.174;4.160;2022-10-16T05:31:10;12.70;99.90
18777;DHT22;9517;51.174;4.160;2022-10-16T05:33:37;12.70;99.90
18777;DHT22;9517;51.174;4.160;2022-10-16T05:36:05;12.60;99.90
18777;DHT22;9517;51.174;4.160;2022-10-16T05:38:33;12.60;99.90
18777;DHT22;9517;51.174;4.160;2022-10-16T05:41:01;12.60;99.90
18777;DHT22;9517;51.174;4.160;2022-10-16T05:43:29;12.60;99.90
18777;DHT22;9517;51.174;4.160;2022-10-16T05:45:57;12.70;99.90
18777;DHT22;9517;51.174;4.160;2022-10-16T05:48:25;12.70;99.90
18777;DHT22;9517;51.174;4.160;2022-10-16T05:50:59;12.80;99.90
18777;DHT22;9517;51.174;4.160;2022-10-16T05:53:27;12.90;99.90
18777;DHT22;9517;51.174;4.160;2022-10-16T05:55:55;12.90;99.90
18777;DHT22;9517;51.174;4.160;2022-10-16T05:58:24;13.00;99.90
18777;DHT22;9517;51.174;4.160;2022-10-16T06:00:56;13.10;99.90
18777;DHT22;9517;51.174;4.160;2022-10-16T06:03:23;13.10;99.90
18777;DHT22;9517;51.174;4.160;2022-10-16T06:05:51;13.20;99.90
18777;DHT22;9517;51.174;4.160;2022-10-16T06:08:19;13.10;99.90
18777;DHT22;9517;51.174;4.160;2022-10-16T06:10:47;13.20;99.90
18777;DHT22;9517;51.174;4.160;2022-10-16T06:13:15;13.20;99.90
18777;DHT22;9517;51.174;4.160;2022-10-16T06:15:43;13.20;99.90
18777;DHT22;9517;51.174;4.160;2022-10-16T06:18:13;13.10;99.90
18777;DHT22;9517;51.174;4.160;2022-10-16T06:20:41;13.10;99.90
18777;DHT22;9517;51.174;4.160;2022-10-16T06:23:08;13.00;99.90
18777;DHT22;9517;51.174;4.160;2022-10-16T06:25:35;13.00;99.90
18777;DHT22;9517;51.174;4.160;2022-10-16T06:28:02;13.00;99.90
18777;DHT22;9517;51.174;4.160;2022-10-16T06:30:29;12.90;99.90
18777;DHT22;9517;51.174;4.160;2022-10-16T06:32:57;12.80;99.90
18777;DHT22;9517;51.174;4.160;2022-10-16T06:35:25;12.90;99.90
18777;DHT22;9517;51.174;4.160;2022-10-16T06:37:52;12.90;99.90
18777;DHT22;9517;51.174;4.160;2022-10-16T06:40:19;13.00;99.90
18777;DHT22;9517;51.174;4.160;2022-10-16T06:42:46;13.10;99.90
18777;DHT22;9517;51.174;4.160;2022-10-16T06:45:14;13.00;99.90
18777;DHT22;9517;51.174;4.160;2022-10-16T06:47:41;12.90;99.90
18777;DHT22;9517;51.174;4.160;2022-10-16T06:50:09;12.90;99.90
18777;DHT22;9517;51.174;4.160;2022-10-16T06:52:37;12.90;99.90
18777;DHT22;9517;51.174;4.160;2022-10-16T06:55:04;13.00;99.90
18777;DHT22;9517;51.174;4.160;2022-10-16T06:57:31;13.00;99.90
18777;DHT22;9517;51.174;4.160;2022-10-16T06:59:58;13.10;99.90
18777;DHT22;9517;51.174;4.160;2022-10-16T07:02:25;13.10;99.90
18777;DHT22;9517;51.174;4.160;2022-10-16T07:04:52;13.20;99.90
18777;DHT22;9517;51.174;4.160;2022-10-16T07:07:21;13.20;99.90
18777;DHT22;9517;51.174;4.160;2022-10-16T07:09:50;13.40;99.90
18777;DHT22;9517;51.174;4.160;2022-10-16T07:12:17;13.60;99.90
18777;DHT22;9517;51.174;4.160;2022-10-16T07:14:44;13.60;99.90
18777;DHT22;9517;51.174;4.160;2022-10-16T07:17:11;13.70;99.90
18777;DHT22;9517;51.174;4.160;2022-10-16T07:19:38;13.70;99.90
18777;DHT22;9517;51.174;4.160;2022-10-16T07:22:05;13.70;99.90
18777;DHT22;9517;51.174;4.160;2022-10-16T07:24:34;13.70;99.90
18777;DHT22;9517;51.174;4.160;2022-10-16T07:27:01;13.80;99.90
18777;DHT22;9517;51.174;4.160;2022-10-16T07:29:28;14.00;99.90
18777;DHT22;9517;51.174;4.160;2022-10-16T07:31:55;14.00;99.90
18777;DHT22;9517;51.174;4.160;2022-10-16T07:34:22;14.00;99.90
18777;DHT22;9517;51.174;4.160;2022-10-16T07:36:50;14.10;99.90
18777;DHT22;9517;51.174;4.160;2022-10-16T07:39:17;14.20;99.90
18777;DHT22;9517;51.174;4.160;2022-10-16T07:41:46;14.20;99.90
18777;DHT22;9517;51.174;4.160;2022-10-16T07:44:13;14.20;99.90
18777;DHT22;9517;51.174;4.160;2022-10-16T07:46:40;14.20;99.90
18777;DHT22;9517;51.174;4.160;2022-10-16T07:49:08;14.30;99.90
18777;DHT22;9517;51.174;4.160;2022-10-16T07:51:35;14.40;99.90
18777;DHT22;9517;51.174;4.160;2022-10-16T07:54:03;14.60;99.90
18777;DHT22;9517;51.174;4.160;2022-10-16T07:56:31;14.70;99.90
18777;DHT22;9517;51.174;4.160;2022-10-16T07:59:00;14.80;99.90
18777;DHT22;9517;51.174;4.160;2022-10-16T08:01:27;14.90;99.90
18777;DHT22;9517;51.174;4.160;2022-10-16T08:03:54;14.90;99.90
18777;DHT22;9517;51.174;4.160;2022-10-16T08:06:22;14.90;99.90
18777;DHT22;9517;51.174;4.160;2022-10-16T08:08:49;15.00;99.90
18777;DHT22;9517;51.174;4.160;2022-10-16T08:11:16;15.10;99.90
18777;DHT22;9517;51.174;4.160;2022-10-16T08:13:43;15.20;99.90
18777;DHT22;9517;51.174;4.160;2022-10-16T08:16:12;15.40;99.90
18777;DHT22;9517;51.174;4.160;2022-10-16T08:18:40;15.50;99.90
18777;DHT22;9517;51.174;4.160;2022-10-16T08:21:11;15.50;99.90
18777;DHT22;9517;51.174;4.160;2022-10-16T08:23:39;15.60;99.90
18777;DHT22;9517;51.174;4.160;2022-10-16T08:26:07;15.60;99.90
18777;DHT22;9517;51.174;4.160;2022-10-16T08:28:35;15.70;99.90
18777;DHT22;9517;51.174;4.160;2022-10-16T08:31:07;15.80;99.90
18777;DHT22;9517;51.174;4.160;2022-10-16T08:33:36;16.00;99.90
18777;DHT22;9517;51.174;4.160;2022-10-16T08:36:05;16.00;99.90
18777;DHT22;9517;51.174;4.160;2022-10-16T08:38:33;16.10;99.90
18777;DHT22;9517;51.174;4.160;2022-10-16T08:41:18;16.10;99.90
18777;DHT22;9517;51.174;4.160;2022-10-16T08:44:11;16.30;99.90
18777;DHT22;9517;51.174;4.160;2022-10-16T08:46:46;16.20;99.90
18777;DHT22;9517;51.174;4.160;2022-10-16T08:49:16;16.20;99.90
18777;DHT22;9517;51.174;4.160;2022-10-16T08:51:44;16.10;99.90
18777;DHT22;9517;51.174;4.160;2022-10-16T08:54:26;16.20;99.90
18777;DHT22;9517;51.174;4.160;2022-10-16T08:56:55;16.30;99.90
18777;DHT22;9517;51.174;4.160;2022-10-16T08:59:23;16.40;99.90
18777;DHT22;9517;51.174;4.160;2022-10-16T09:01:50;16.50;99.90
18777;DHT22;9517;51.174;4.160;2022-10-16T09:04:46;16.60;99.90
18777;DHT22;9517;51.174;4.160;2022-10-16T09:07:22;16.60;99.90
18777;DHT22;9517;51.174;4.160;2022-10-16T09:10:11;16.80;99.90
18777;DHT22;9517;51.174;4.160;2022-10-16T09:12:48;16.90;99.90
18777;DHT22;9517;51.174;4.160;2022-10-16T09:15:25;17.00;99.90
18777;DHT22;9517;51.174;4.160;2022-10-16T09:17:58;17.00;99.90
18777;DHT22;9517;51.174;4.160;2022-10-16T09:20:38;17.00;99.90
18777;DHT22;9517;51.174;4.160;2022-10-16T09:23:15;17.10;99.90
18777;DHT22;9517;51.174;4.160;2022-10-16T09:25:45;17.30;99.90
18777;DHT22;9517;51.174;4.160;2022-10-16T09:28:13;17.30;99.90
18777;DHT22;9517;51.174;4.160;2022-10-16T09:30:40;17.60;99.90
18777;DHT22;9517;51.174;4.160;2022-10-16T09:33:09;17.60;99.90
18777;DHT22;9517;51.174;4.160;2022-10-16T09:35:40;17.70;99.90
18777;DHT22;9517;51.174;4.160;2022-10-16T09:38:27;17.90;99.90
18777;DHT22;9517;51.174;4.160;2022-10-16T09:40:56;17.90;99.90
18777;DHT22;9517;51.174;4.160;2022-10-16T09:43:26;17.90;99.90
18777;DHT22;9517;51.174;4.160;2022-10-16T09:46:00;17.90;99.90
18777;DHT22;9517;51.174;4.160;2022-10-16T09:48:33;18.10;99.90
18777;DHT22;9517;51.174;4.160;2022-10-16T09:51:06;18.40;99.90
18777;DHT22;9517;51.174;4.160;2022-10-16T09:53:40;18.70;99.90
18777;DHT22;9517;51.174;4.160;2022-10-16T09:56:10;18.70;99.90
18777;DHT22;9517;51.174;4.160;2022-10-16T09:58:42;18.40;99.90
18777;DHT22;9517;51.174;4.160;2022-10-16T10:01:12;18.40;99.90
18777;DHT22;9517;51.174;4.160;2022-10-16T10:10:40;18.70;99.90
18777;DHT22;9517;51.174;4.160;2022-10-16T10:13:17;18.40;99.90
18777;DHT22;9517;51.174;4.160;2022-10-16T10:15:51;18.40;99.90
18777;DHT22;9517;51.174;4.160;2022-10-16T10:18:21;18.60;99.90
18777;DHT22;9517;51.174;4.160;2022-10-16T10:20:57;18.60;99.90
18777;DHT22;9517;51.174;4.160;2022-10-16T10:23:25;18.60;99.90
18777;DHT22;9517;51.174;4.160;2022-10-16T10:25:58;18.80;99.90
18777;DHT22;9517;51.174;4.160;2022-10-16T10:28:46;18.90;99.90
18777;DHT22;9517;51.174;4.160;2022-10-16T10:31:21;19.30;99.90
18777;DHT22;9517;51.174;4.160;2022-10-16T10:33:56;20.00;99.90
18777;DHT22;9517;51.174;4.160;2022-10-16T10:36:30;20.10;99.90
18777;DHT22;9517;51.174;4.160;2022-10-16T10:39:00;20.70;99.90
18777;DHT22;9517;51.174;4.160;2022-10-16T10:42:05;21.10;99.90
18777;DHT22;9517;51.174;4.160;2022-10-16T10:44:50;21.70;99.90
18777;DHT22;9517;51.174;4.160;2022-10-16T10:47:27;22.10;99.90
18777;DHT22;9517;51.174;4.160;2022-10-16T10:50:05;23.20;99.90
18777;DHT22;9517;51.174;4.160;2022-10-16T10:52:50;23.60;99.90
18777;DHT22;9517;51.174;4.160;2022-10-16T10:55:26;23.60;99.90
18777;DHT22;9517;51.174;4.160;2022-10-16T10:58:21;23.10;99.90
18777;DHT22;9517;51.174;4.160;2022-10-16T11:01:26;24.00;99.90
18777;DHT22;9517;51.174;4.160;2022-10-16T11:04:40;23.40;99.90
18777;DHT22;9517;51.174;4.160;2022-10-16T11:07:19;23.70;99.90
18777;DHT22;9517;51.174;4.160;2022-10-16T11:09:51;24.30;99.90
18777;DHT22;9517;51.174;4.160;2022-10-16T11:12:51;25.40;99.90
18777;DHT22;9517;51.174;4.160;2022-10-16T11:15:25;25.50;99.90
18777;DHT22;9517;51.174;4.160;2022-10-16T11:18:06;25.60;99.90
18777;DHT22;9517;51.174;4.160;2022-10-16T11:20:54;26.80;99.90
18777;DHT22;9517;51.174;4.160;2022-10-16T11:23:28;28.50;99.90
18777;DHT22;9517;51.174;4.160;2022-10-16T11:26:00;29.40;99.90
18777;DHT22;9517;51.174;4.160;2022-10-16T11:28:34;30.10;99.90
18777;DHT22;9517;51.174;4.160;2022-10-16T11:31:08;28.40;99.90
18777;DHT22;9517;51.174;4.160;2022-10-16T11:33:43;26.50;99.90
18777;DHT22;9517;51.174;4.160;2022-10-16T11:36:16;25.10;99.90
18777;DHT22;9517;51.174;4.160;2022-10-16T11:38:51;24.40;99.90
18777;DHT22;9517;51.174;4.160;2022-10-16T11:41:26;23.60;99.90
18777;DHT22;9517;51.174;4.160;2022-10-16T11:44:14;24.20;99.90
18777;DHT22;9517;51.174;4.160;2022-10-16T11:46:50;25.90;99.90
18777;DHT22;9517;51.174;4.160;2022-10-16T11:49:20;27.20;99.90
18777;DHT22;9517;51.174;4.160;2022-10-16T11:52:04;28.30;99.90
18777;DHT22;9517;51.174;4.160;2022-10-16T11:54:37;28.80;99.90
18777;DHT22;9517;51.174;4.160;2022-10-16T11:57:11;28.60;98.70
18777;DHT22;9517;51.174;4.160;2022-10-16T11:59:43;28.70;99.90
18777;DHT22;9517;51.174;4.160;2022-10-16T12:02:33;26.60;99.20
18777;DHT22;9517;51.174;4.160;2022-10-16T12:05:11;24.50;99.90
18777;DHT22;9517;51.174;4.160;2022-10-16T12:07:49;24.60;99.90
18777;DHT22;9517;51.174;4.160;2022-10-16T12:10:21;25.90;99.90
18777;DHT22;9517;51.174;4.160;2022-10-16T12:12:49;26.70;99.90
18777;DHT22;9517;51.174;4.160;2022-10-16T12:15:23;27.40;99.90
18777;DHT22;9517;51.174;4.160;2022-10-16T12:17:52;27.80;99.90
18777;DHT22;9517;51.174;4.160;2022-10-16T12:20:22;27.80;99.90
18777;DHT22;9517;51.174;4.160;2022-10-16T12:22:53;28.00;99.90
18777;DHT22;9517;51.174;4.160;2022-10-16T12:25:24;27.50;99.90
18777;DHT22;9517;51.174;4.160;2022-10-16T12:28:17;26.80;99.90
18777;DHT22;9517;51.174;4.160;2022-10-16T12:30:53;27.80;99.90
18777;DHT22;9517;51.174;4.160;2022-10-16T12:33:26;28.70;98.10
18777;DHT22;9517;51.174;4.160;2022-10-16T12:35:54;29.00;96.20
18777;DHT22;9517;51.174;4.160;2022-10-16T12:38:25;27.80;96.20
18777;DHT22;9517;51.174;4.160;2022-10-16T12:41:01;26.70;99.90
18777;DHT22;9517;51.174;4.160;2022-10-16T12:43:37;26.70;99.90
18777;DHT22;9517;51.174;4.160;2022-10-16T12:46:21;28.00;99.90
18777;DHT22;9517;51.174;4.160;2022-10-16T12:48:52;28.80;99.50
18777;DHT22;9517;51.174;4.160;2022-10-16T12:51:24;29.80;98.70
18777;DHT22;9517;51.174;4.160;2022-10-16T12:53:59;30.20;95.30
18777;DHT22;9517;51.174;4.160;2022-10-16T12:56:35;30.20;93.50
18777;DHT22;9517;51.174;4.160;2022-10-16T12:59:13;28.80;96.80
18777;DHT22;9517;51.174;4.160;2022-10-16T13:02:03;27.90;97.90
18777;DHT22;9517;51.174;4.160;2022-10-16T13:05:02;27.10;99.40
18777;DHT22;9517;51.174;4.160;2022-10-16T13:07:44;26.10;99.90
18777;DHT22;9517;51.174;4.160;2022-10-16T13:10:20;25.00;99.90
18777;DHT22;9517;51.174;4.160;2022-10-16T13:13:28;24.30;99.90
18777;DHT22;9517;51.174;4.160;2022-10-16T13:16:05;24.60;99.90
18777;DHT22;9517;51.174;4.160;2022-10-16T13:18:46;24.90;99.90
18777;DHT22;9517;51.174;4.160;2022-10-16T13:21:30;25.20;99.90
18777;DHT22;9517;51.174;4.160;2022-10-16T13:24:06;25.00;99.90
18777;DHT22;9517;51.174;4.160;2022-10-16T13:26:42;25.00;99.90
18777;DHT22;9517;51.174;4.160;2022-10-16T13:29:13;24.90;99.90
18777;DHT22;9517;51.174;4.160;2022-10-16T13:31:43;24.80;99.90
18777;DHT22;9517;51.174;4.160;2022-10-16T13:34:14;24.60;99.90
18777;DHT22;9517;51.174;4.160;2022-10-16T13:36:47;23.80;99.90
18777;DHT22;9517;51.174;4.160;2022-10-16T13:39:21;23.30;99.90
18777;DHT22;9517;51.174;4.160;2022-10-16T13:42:01;23.00;99.90
18777;DHT22;9517;51.174;4.160;2022-10-16T13:44:36;22.80;99.90
18777;DHT22;9517;51.174;4.160;2022-10-16T13:47:03;23.00;99.90
18777;DHT22;9517;51.174;4.160;2022-10-16T13:49:31;23.10;99.90
18777;DHT22;9517;51.174;4.160;2022-10-16T13:52:01;23.20;99.90
18777;DHT22;9517;51.174;4.160;2022-10-16T13:54:28;23.30;99.90
18777;DHT22;9517;51.174;4.160;2022-10-16T13:56:56;23.50;99.90
18777;DHT22;9517;51.174;4.160;2022-10-16T13:59:25;23.30;99.90
18777;DHT22;9517;51.174;4.160;2022-10-16T14:01:56;23.20;99.90
18777;DHT22;9517;51.174;4.160;2022-10-16T14:04:29;22.80;99.90
18777;DHT22;9517;51.174;4.160;2022-10-16T14:07:05;22.80;99.90
18777;DHT22;9517;51.174;4.160;2022-10-16T14:09:32;22.90;99.90
18777;DHT22;9517;51.174;4.160;2022-10-16T14:12:09;23.00;99.90
18777;DHT22;9517;51.174;4.160;2022-10-16T14:14:42;22.50;99.90
18777;DHT22;9517;51.174;4.160;2022-10-16T14:17:14;22.30;99.90
18777;DHT22;9517;51.174;4.160;2022-10-16T14:19:46;22.10;99.90
18777;DHT22;9517;51.174;4.160;2022-10-16T14:22:33;22.10;99.90
18777;DHT22;9517;51.174;4.160;2022-10-16T14:25:27;22.40;99.90
18777;DHT22;9517;51.174;4.160;2022-10-16T14:28:00;23.30;99.90
18777;DHT22;9517;51.174;4.160;2022-10-16T14:30:32;24.40;99.90
18777;DHT22;9517;51.174;4.160;2022-10-16T14:33:06;25.10;99.90
18777;DHT22;9517;51.174;4.160;2022-10-16T14:35:34;25.10;99.90
18777;DHT22;9517;51.174;4.160;2022-10-16T14:38:05;25.00;99.90
18777;DHT22;9517;51.174;4.160;2022-10-16T14:40:34;24.60;99.90
18777;DHT22;9517;51.174;4.160;2022-10-16T14:43:03;23.80;99.90
18777;DHT22;9517;51.174;4.160;2022-10-16T14:45:33;23.40;99.90
18777;DHT22;9517;51.174;4.160;2022-10-16T14:48:04;23.20;99.90
18777;DHT22;9517;51.174;4.160;2022-10-16T14:50:32;22.70;99.90
18777;DHT22;9517;51.174;4.160;2022-10-16T14:52:59;22.40;99.90
18777;DHT22;9517;51.174;4.160;2022-10-16T14:55:31;22.10;99.90
18777;DHT22;9517;51.174;4.160;2022-10-16T14:58:02;21.90;99.90
18777;DHT22;9517;51.174;4.160;2022-10-16T15:00:30;21.90;99.90
18777;DHT22;9517;51.174;4.160;2022-10-16T15:02:58;21.70;99.90
18777;DHT22;9517;51.174;4.160;2022-10-16T15:05:27;21.50;99.90
18777;DHT22;9517;51.174;4.160;2022-10-16T15:07:55;21.20;99.90
18777;DHT22;9517;51.174;4.160;2022-10-16T15:10:24;20.80;99.90
18777;DHT22;9517;51.174;4.160;2022-10-16T15:12:53;20.80;99.90
18777;DHT22;9517;51.174;4.160;2022-10-16T15:15:44;20.50;99.90
18777;DHT22;9517;51.174;4.160;2022-10-16T15:18:12;20.50;99.90
18777;DHT22;9517;51.174;4.160;2022-10-16T15:20:45;20.50;99.90
18777;DHT22;9517;51.174;4.160;2022-10-16T15:23:14;20.50;99.90
18777;DHT22;9517;51.174;4.160;2022-10-16T15:25:43;20.50;99.90
18777;DHT22;9517;51.174;4.160;2022-10-16T15:28:13;20.30;99.90
18777;DHT22;9517;51.174;4.160;2022-10-16T15:30:43;20.40;99.90
18777;DHT22;9517;51.174;4.160;2022-10-16T15:33:16;20.30;99.90
18777;DHT22;9517;51.174;4.160;2022-10-16T15:35:47;20.20;99.90
18777;DHT22;9517;51.174;4.160;2022-10-16T15:38:15;20.00;99.90
18777;DHT22;9517;51.174;4.160;2022-10-16T15:40:43;19.90;99.90
18777;DHT22;9517;51.174;4.160;2022-10-16T15:43:11;19.90;99.90
18777;DHT22;9517;51.174;4.160;2022-10-16T15:45:39;19.90;99.90
18777;DHT22;9517;51.174;4.160;2022-10-16T15:48:08;19.90;99.90
18777;DHT22;9517;51.174;4.160;2022-10-16T15:50:37;19.90;99.90
18777;DHT22;9517;51.174;4.160;2022-10-16T15:53:05;19.90;99.90
18777;DHT22;9517;51.174;4.160;2022-10-16T15:55:34;19.80;99.90
18777;DHT22;9517;51.174;4.160;2022-10-16T15:58:03;19.70;99.90
18777;DHT22;9517;51.174;4.160;2022-10-16T16:00:31;19.80;99.90
18777;DHT22;9517;51.174;4.160;2022-10-16T16:02:58;19.60;99.90
18777;DHT22;9517;51.174;4.160;2022-10-16T16:05:26;19.50;99.90
18777;DHT22;9517;51.174;4.160;2022-10-16T16:07:53;19.40;99.90
18777;DHT22;9517;51.174;4.160;2022-10-16T16:10:21;19.30;99.90
18777;DHT22;9517;51.174;4.160;2022-10-16T16:12:49;19.30;99.90
18777;DHT22;9517;51.174;4.160;2022-10-16T16:15:19;19.20;99.90
18777;DHT22;9517;51.174;4.160;2022-10-16T16:17:48;19.20;99.90
18777;DHT22;9517;51.174;4.160;2022-10-16T16:20:15;19.10;99.90